Huvudsida
METAR-TAF:

METAR-TAF

Flygplatser :

Loei, Thailand

latitud: 17-27N, longitud: 101-44E, höjd: 253 m

Aktuellt väderrapport

Denna rapport gjordes för 54 minuter sedan, klockan 11:00 UTC
Vind 5 kt från väst, varierande mellan väst/sydväst och väst/nordväst
Temperatur 37°C
Fuktighet 37%
Tryck 1003 hPa
Sikt 10 km eller mer
Få moln på en höjd av 3500 ft

METAR: VTUL 241100Z 27005KT 240V300 9999 FEW035 37/20 Q1003 NOSIG

Tid: 18:54 (11:54 UTC)

Väderprognos

Denna rapport gjordes för 54 minuter sedan, klockan 11:00 UTC
Prognos gäller från 24 kl. 12 UTC till 25 kl. 12 UTC
Vind 6 kt från sydväst
Sikt: 7000 m
Få moln på en höjd av 3000 ft

TAF: VTUL 241100Z 2412/2512 22006KT 7000 FEW030

Aktuella väderrapporter och prognoser från 4000 flygplatser (METAR- och TAF-rapporter).

De tillgängliga stationerna syns som gula och röda prickar på kartan.

För musen över prickarna för att se namnen på stationerna.

Klicka sedan för att få väderrapporter och prognoser.

För att ändra kartan: Klicka på de gröna knapparna med ett svart kors på för att zooma in; den gröna knappen med ett streck på för att zooma ut; eller på de gröna pilarna för angränsande kartor.


METAR-TAF: